createdAt,value
2019-02-20T00:01:05.340Z,15.30
2019-02-20T00:03:33.720Z,21.27
2019-02-20T00:06:02.111Z,23.07
2019-02-20T00:08:30.483Z,22.40
2019-02-20T00:10:58.869Z,30.30
2019-02-20T00:13:27.267Z,19.43
2019-02-20T00:15:55.704Z,16.60
2019-02-20T00:18:24.080Z,24.23
2019-02-20T00:20:52.459Z,17.53
2019-02-20T00:23:20.841Z,20.47
2019-02-20T00:25:49.220Z,17.80
2019-02-20T00:28:17.591Z,15.53
2019-02-20T00:30:45.984Z,26.80
2019-02-20T00:33:14.359Z,14.43
2019-02-20T00:35:42.730Z,17.37
2019-02-20T00:38:11.119Z,13.47
2019-02-20T00:40:39.500Z,16.30
2019-02-20T00:43:07.873Z,19.03
2019-02-20T00:45:53.828Z,14.33
2019-02-20T00:48:23.845Z,21.00
2019-02-20T00:51:10.111Z,23.00
2019-02-20T00:53:55.635Z,23.53
2019-02-20T00:56:24.022Z,17.87
2019-02-20T00:58:52.396Z,12.67
2019-02-20T01:01:20.780Z,23.30
2019-02-20T01:03:49.164Z,19.73
2019-02-20T01:06:17.615Z,22.43
2019-02-20T01:08:46.021Z,11.70
2019-02-20T01:11:14.518Z,16.67
2019-02-20T01:13:42.904Z,25.27
2019-02-20T01:16:11.278Z,12.60
2019-02-20T01:18:39.678Z,21.77
2019-02-20T01:21:08.044Z,17.30
2019-02-20T01:23:36.429Z,17.57
2019-02-20T01:26:04.823Z,16.73
2019-02-20T01:28:33.195Z,20.37
2019-02-20T01:31:01.573Z,17.40
2019-02-20T01:33:29.964Z,16.53
2019-02-20T01:35:58.336Z,17.03
2019-02-20T01:38:26.719Z,23.20
2019-02-20T01:40:55.091Z,19.80
2019-02-20T01:43:23.475Z,21.27
2019-02-20T01:45:51.844Z,16.30
2019-02-20T01:48:20.232Z,21.63
2019-02-20T01:50:48.604Z,14.90
2019-02-20T01:53:16.991Z,17.87
2019-02-20T01:55:45.365Z,17.73
2019-02-20T01:58:13.748Z,15.90
2019-02-20T02:00:42.136Z,17.73
2019-02-20T02:03:10.515Z,18.93
2019-02-20T02:05:38.901Z,15.10
2019-02-20T02:08:07.282Z,15.97
2019-02-20T02:10:35.652Z,19.97
2019-02-20T02:13:04.040Z,20.97
2019-02-20T02:15:32.433Z,19.40
2019-02-20T02:18:00.818Z,15.57
2019-02-20T02:20:29.179Z,17.13
2019-02-20T02:22:57.571Z,15.43
2019-02-20T02:25:25.948Z,22.70
2019-02-20T02:27:54.388Z,16.57
2019-02-20T02:30:22.777Z,16.97
2019-02-20T02:32:51.150Z,24.13
2019-02-20T02:35:19.531Z,22.07
2019-02-20T02:37:47.919Z,18.17
2019-02-20T02:40:16.291Z,22.43
2019-02-20T02:42:44.674Z,15.77
2019-02-20T02:45:13.116Z,24.93
2019-02-20T02:47:41.506Z,21.33
2019-02-20T02:50:09.887Z,25.07
2019-02-20T02:52:38.283Z,18.80
2019-02-20T02:55:06.794Z,20.60
2019-02-20T02:57:35.200Z,26.90
2019-02-20T03:00:04.711Z,24.80
2019-02-20T03:02:33.084Z,19.67
2019-02-20T03:05:01.480Z,23.20
2019-02-20T03:07:29.859Z,25.73
2019-02-20T03:09:58.243Z,16.30
2019-02-20T03:12:26.619Z,21.60
2019-02-20T03:14:54.995Z,17.83
2019-02-20T03:17:23.380Z,18.87
2019-02-20T03:19:51.757Z,23.63
2019-02-20T03:22:20.136Z,22.27
2019-02-20T03:24:48.527Z,19.00
2019-02-20T03:27:16.930Z,33.40
2019-02-20T03:29:45.283Z,20.00
2019-02-20T03:32:13.668Z,22.60
2019-02-20T03:34:42.052Z,25.00
2019-02-20T03:37:10.428Z,26.37
2019-02-20T03:39:38.811Z,28.13
2019-02-20T03:42:07.257Z,25.77
2019-02-20T03:44:35.661Z,24.17
2019-02-20T03:47:04.026Z,27.17
2019-02-20T03:49:32.408Z,25.97
2019-02-20T03:52:00.780Z,23.30
2019-02-20T03:54:29.155Z,23.47
2019-02-20T03:56:57.544Z,27.63
2019-02-20T03:59:25.943Z,33.77
2019-02-20T04:01:54.327Z,28.83
2019-02-20T04:04:22.703Z,31.63
2019-02-20T04:06:51.099Z,29.33
2019-02-20T04:09:19.490Z,33.13
2019-02-20T04:11:47.894Z,28.00
2019-02-20T04:14:16.268Z,33.50
2019-02-20T04:16:44.648Z,35.27
2019-02-20T04:19:13.039Z,29.27
2019-02-20T04:21:41.420Z,28.50
2019-02-20T04:24:09.807Z,37.00
2019-02-20T04:26:38.806Z,38.00
2019-02-20T04:29:07.312Z,29.60
2019-02-20T04:31:35.713Z,29.03
2019-02-20T04:34:04.111Z,33.30
2019-02-20T04:36:32.467Z,24.10
2019-02-20T04:39:00.893Z,30.93
2019-02-20T04:41:29.282Z,29.90
2019-02-20T04:43:57.897Z,29.73
2019-02-20T04:46:26.298Z,35.47
2019-02-20T04:48:54.663Z,45.00
2019-02-20T04:51:23.056Z,35.70
2019-02-20T04:53:51.437Z,31.73
2019-02-20T04:56:19.828Z,41.93
2019-02-20T04:58:51.112Z,40.73
2019-02-20T05:01:19.519Z,33.97
2019-02-20T05:03:47.925Z,47.73
2019-02-20T05:06:16.303Z,40.27
2019-02-20T05:08:44.706Z,37.50
2019-02-20T05:11:13.110Z,40.53
2019-02-20T05:13:41.493Z,38.43
2019-02-20T05:16:09.883Z,45.33
2019-02-20T05:18:38.272Z,40.07
2019-02-20T05:21:06.660Z,42.73
2019-02-20T05:23:35.046Z,49.30
2019-02-20T05:26:03.428Z,45.43
2019-02-20T05:28:31.816Z,45.53
2019-02-20T05:31:00.204Z,44.60
2019-02-20T05:33:28.585Z,45.50
2019-02-20T05:35:56.963Z,47.63
2019-02-20T05:38:25.349Z,52.17
2019-02-20T05:40:53.742Z,44.00
2019-02-20T05:43:22.112Z,45.40
2019-02-20T05:45:50.504Z,46.60
2019-02-20T05:48:18.876Z,45.43
2019-02-20T05:50:47.264Z,43.33
2019-02-20T05:53:15.666Z,41.97
2019-02-20T05:55:44.028Z,41.23
2019-02-20T05:58:12.409Z,43.87
2019-02-20T06:00:40.797Z,46.90
2019-02-20T06:03:09.176Z,45.30
2019-02-20T06:05:37.583Z,36.07
2019-02-20T06:08:05.968Z,40.17
2019-02-20T06:10:34.358Z,45.00
2019-02-20T06:13:02.743Z,45.10
2019-02-20T06:15:31.146Z,38.90
2019-02-20T06:17:59.541Z,46.10
2019-02-20T06:20:27.964Z,43.43
2019-02-20T06:22:56.389Z,35.93
2019-02-20T06:25:24.770Z,49.93
2019-02-20T06:27:53.185Z,48.57
2019-02-20T06:30:21.628Z,46.77
2019-02-20T06:32:50.014Z,35.83
2019-02-20T06:35:18.402Z,52.33
2019-02-20T06:37:46.799Z,40.20
2019-02-20T06:40:15.400Z,40.47
2019-02-20T06:42:43.779Z,38.63
2019-02-20T06:45:12.171Z,36.77
2019-02-20T06:47:40.560Z,36.67
2019-02-20T06:50:09.035Z,44.07
2019-02-20T06:52:37.411Z,42.87
2019-02-20T06:55:09.023Z,47.60
2019-02-20T06:57:37.415Z,40.70
2019-02-20T07:00:11.492Z,39.43
2019-02-20T07:02:39.875Z,41.17
2019-02-20T07:05:30.267Z,51.03
2019-02-20T07:08:27.228Z,47.43
2019-02-20T07:11:13.636Z,47.87
2019-02-20T07:13:57.135Z,42.73
2019-02-20T07:16:43.679Z,47.07
2019-02-20T07:19:24.163Z,45.87
2019-02-20T07:22:01.247Z,48.40
2019-02-20T07:24:32.695Z,41.07
2019-02-20T07:27:04.164Z,45.57
2019-02-20T07:29:54.881Z,45.30
2019-02-20T07:32:23.267Z,32.53
2019-02-20T07:35:10.987Z,40.33
2019-02-20T07:37:39.368Z,38.23
2019-02-20T07:40:08.779Z,46.47
2019-02-20T07:42:37.177Z,42.27
2019-02-20T07:45:08.191Z,41.43
2019-02-20T07:47:36.572Z,38.43
2019-02-20T07:50:07.702Z,44.73
2019-02-20T07:52:36.083Z,46.73
2019-02-20T07:55:12.867Z,41.27
2019-02-20T07:57:35.908Z,50.27
2019-02-20T08:00:09.655Z,49.20
2019-02-20T08:02:38.028Z,52.83
2019-02-20T08:05:06.556Z,57.77
2019-02-20T08:07:34.935Z,61.60
2019-02-20T08:10:04.163Z,65.87
2019-02-20T08:12:32.543Z,65.17
2019-02-20T08:15:00.931Z,61.33
2019-02-20T08:17:29.311Z,59.57
2019-02-20T08:19:57.712Z,60.33
2019-02-20T08:22:26.112Z,61.73
2019-02-20T08:24:54.493Z,54.67
2019-02-20T08:27:22.948Z,65.40
2019-02-20T08:29:51.335Z,61.70
2019-02-20T08:32:19.729Z,54.00
2019-02-20T08:34:48.130Z,47.97
2019-02-20T08:37:16.504Z,48.63
2019-02-20T08:39:44.900Z,55.57
2019-02-20T08:42:13.288Z,47.87
2019-02-20T08:44:41.683Z,45.00
2019-02-20T08:47:10.074Z,51.70
2019-02-20T08:49:38.464Z,46.43
2019-02-20T08:52:06.847Z,46.30
2019-02-20T08:54:35.243Z,37.70
2019-02-20T08:57:03.642Z,39.13
2019-02-20T08:59:32.265Z,42.97
2019-02-20T09:02:00.652Z,45.90
2019-02-20T09:04:29.024Z,38.50
2019-02-20T09:06:57.424Z,27.73
2019-02-20T09:09:25.806Z,38.23
2019-02-20T09:11:54.417Z,37.80
2019-02-20T09:14:22.811Z,33.87
2019-02-20T09:16:51.208Z,45.00
2019-02-20T09:19:19.587Z,36.03
2019-02-20T09:21:47.984Z,37.20
2019-02-20T09:24:16.372Z,33.87
2019-02-20T09:26:44.770Z,35.90
2019-02-20T09:29:13.161Z,38.00
2019-02-20T09:31:41.547Z,29.93
2019-02-20T09:34:09.947Z,28.83
2019-02-20T09:36:38.331Z,27.53
2019-02-20T09:39:35.719Z,35.37
2019-02-20T09:42:05.540Z,27.33
2019-02-20T09:44:40.044Z,26.27
2019-02-20T09:47:08.429Z,23.20
2019-02-20T09:49:36.826Z,23.73
2019-02-20T09:52:05.200Z,21.70
2019-02-20T09:54:33.592Z,13.70
2019-02-20T09:57:01.971Z,20.90
2019-02-20T09:59:30.363Z,16.00
2019-02-20T10:01:58.739Z,17.70
2019-02-20T10:04:27.183Z,17.87
2019-02-20T10:06:55.570Z,17.57
2019-02-20T10:09:23.957Z,15.27
2019-02-20T10:11:52.331Z,13.70
2019-02-20T10:14:20.728Z,15.37
2019-02-20T10:16:49.118Z,16.93
2019-02-20T10:19:17.503Z,17.40
2019-02-20T10:21:45.891Z,16.13
2019-02-20T10:24:14.285Z,17.23
2019-02-20T10:26:42.663Z,13.23
2019-02-20T10:29:11.055Z,24.83
2019-02-20T10:31:39.440Z,9.20
2019-02-20T10:34:07.821Z,11.57
2019-02-20T10:36:36.199Z,14.33
2019-02-20T10:39:05.324Z,16.20
2019-02-20T10:41:33.937Z,15.87
2019-02-20T10:44:02.327Z,17.63
2019-02-20T10:46:30.948Z,18.77
2019-02-20T10:48:59.327Z,10.40
2019-02-20T10:51:27.804Z,12.77
2019-02-20T10:53:56.173Z,19.13
2019-02-20T10:56:24.570Z,12.90
2019-02-20T10:58:52.944Z,16.37
2019-02-20T11:01:21.328Z,12.23
2019-02-20T11:03:49.727Z,16.67
2019-02-20T11:06:18.105Z,18.20
2019-02-20T11:08:46.501Z,17.17
2019-02-20T11:11:14.907Z,20.10
2019-02-20T11:13:43.280Z,19.23
2019-02-20T11:16:11.661Z,15.10
2019-02-20T11:18:40.041Z,14.07
2019-02-20T11:21:08.424Z,14.13
2019-02-20T11:23:36.811Z,17.40
2019-02-20T11:26:05.191Z,13.13
2019-02-20T11:28:33.588Z,17.30
2019-02-20T11:31:01.959Z,14.40
2019-02-20T11:33:30.336Z,12.23
2019-02-20T11:35:58.735Z,17.13
2019-02-20T11:38:27.344Z,10.47
2019-02-20T11:40:55.736Z,13.20
2019-02-20T11:43:24.112Z,12.30
2019-02-20T11:45:52.567Z,9.20
2019-02-20T11:48:20.944Z,10.53
2019-02-20T11:50:49.328Z,20.37
2019-02-20T11:53:18.047Z,13.50
2019-02-20T11:55:46.441Z,15.17
2019-02-20T11:58:14.822Z,15.13
2019-02-20T12:00:43.203Z,10.13
2019-02-20T12:03:11.592Z,12.97
2019-02-20T12:05:39.967Z,13.27
2019-02-20T12:08:08.417Z,15.27
2019-02-20T12:10:36.809Z,10.03
2019-02-20T12:13:05.195Z,13.17
2019-02-20T12:15:33.800Z,14.67
2019-02-20T12:18:02.192Z,15.17
2019-02-20T12:20:30.642Z,12.57
2019-02-20T12:22:59.031Z,13.83
2019-02-20T12:25:27.415Z,13.47
2019-02-20T12:27:55.800Z,15.73
2019-02-20T12:30:24.196Z,15.60
2019-02-20T12:32:52.580Z,11.47
2019-02-20T12:35:20.974Z,16.60
2019-02-20T12:37:49.352Z,13.53
2019-02-20T12:40:17.738Z,15.67
2019-02-20T12:42:46.115Z,17.67
2019-02-20T12:45:14.509Z,13.30
2019-02-20T12:47:42.884Z,19.63
2019-02-20T12:50:13.220Z,15.13
2019-02-20T12:52:41.599Z,11.23
2019-02-20T12:55:10.552Z,13.40
2019-02-20T12:57:38.924Z,9.73
2019-02-20T13:00:15.589Z,14.03
2019-02-20T13:02:43.983Z,14.53
2019-02-20T13:05:12.420Z,12.60
2019-02-20T13:07:40.836Z,15.70
2019-02-20T13:10:09.956Z,14.87
2019-02-20T13:12:38.348Z,11.40
2019-02-20T13:15:08.971Z,11.17
2019-02-20T13:17:37.352Z,10.67
2019-02-20T13:20:07.984Z,14.47
2019-02-20T13:22:36.365Z,9.90
2019-02-20T13:25:06.095Z,13.27
2019-02-20T13:27:34.471Z,11.93
2019-02-20T13:30:02.935Z,10.93
2019-02-20T13:32:31.316Z,14.50
2019-02-20T13:34:59.704Z,14.80
2019-02-20T13:37:28.084Z,15.87
2019-02-20T13:39:56.507Z,12.77
2019-02-20T13:42:24.940Z,13.33
2019-02-20T13:44:53.909Z,16.07
2019-02-20T13:47:22.491Z,14.57
2019-02-20T13:49:50.867Z,11.53
2019-02-20T13:52:19.240Z,8.10
2019-02-20T13:54:47.756Z,9.90
2019-02-20T13:57:16.523Z,12.93
2019-02-20T13:59:44.908Z,9.80
2019-02-20T14:02:13.284Z,13.87
2019-02-20T14:04:41.684Z,11.00
2019-02-20T14:07:10.076Z,13.43
2019-02-20T14:09:38.477Z,10.07
2019-02-20T14:12:07.298Z,14.40
2019-02-20T14:14:36.017Z,12.60
2019-02-20T14:17:04.479Z,14.43
2019-02-20T14:19:33.831Z,13.13
2019-02-20T14:22:02.227Z,15.80
2019-02-20T14:24:30.611Z,16.60
2019-02-20T14:26:58.992Z,12.53
2019-02-20T14:29:27.380Z,13.03
2019-02-20T14:31:55.927Z,15.37
2019-02-20T14:34:24.326Z,17.10
2019-02-20T14:36:52.713Z,13.83
2019-02-20T14:39:21.100Z,14.70
2019-02-20T14:41:49.482Z,17.47
2019-02-20T14:44:17.865Z,15.77
2019-02-20T14:46:46.264Z,9.47
2019-02-20T14:49:14.641Z,10.97
2019-02-20T14:51:43.032Z,11.23
2019-02-20T14:54:11.460Z,10.47
2019-02-20T14:56:39.880Z,11.10
2019-02-20T14:59:08.267Z,12.63
2019-02-20T15:01:36.660Z,12.53
2019-02-20T15:04:05.040Z,11.00
2019-02-20T15:06:33.416Z,13.30
2019-02-20T15:09:03.428Z,10.03
2019-02-20T15:11:31.814Z,9.27
2019-02-20T15:14:00.191Z,11.80
2019-02-20T15:16:28.570Z,10.63
2019-02-20T15:18:56.960Z,10.70
2019-02-20T15:21:25.730Z,11.23
2019-02-20T15:23:54.179Z,10.33
2019-02-20T15:26:22.568Z,14.60
2019-02-20T15:28:50.949Z,14.93
2019-02-20T15:31:21.296Z,10.87
2019-02-20T15:33:49.447Z,12.63
2019-02-20T15:36:17.820Z,13.47
2019-02-20T15:38:46.195Z,10.93
2019-02-20T15:41:14.588Z,14.97
2019-02-20T15:43:42.965Z,9.17
2019-02-20T15:46:11.356Z,12.10
2019-02-20T15:48:40.197Z,14.13
2019-02-20T15:51:08.656Z,14.37
2019-02-20T15:53:37.035Z,15.50
2019-02-20T15:56:05.495Z,13.70
2019-02-20T15:58:33.895Z,20.63
2019-02-20T16:01:02.424Z,14.10
2019-02-20T16:03:30.807Z,13.03
2019-02-20T16:05:59.188Z,13.63
2019-02-20T16:08:27.576Z,19.70
2019-02-20T16:10:55.960Z,13.77
2019-02-20T16:13:24.571Z,13.40
2019-02-20T16:15:52.948Z,12.13
2019-02-20T16:18:21.328Z,15.10
2019-02-20T16:20:49.723Z,13.93
2019-02-20T16:23:18.100Z,16.27
2019-02-20T16:25:46.479Z,12.43
2019-02-20T16:28:15.448Z,15.00
2019-02-20T16:30:43.835Z,14.57
2019-02-20T16:33:12.221Z,19.13
2019-02-20T16:35:40.604Z,15.70
2019-02-20T16:38:08.981Z,18.53
2019-02-20T16:40:37.371Z,15.00
2019-02-20T16:43:05.755Z,15.37
2019-02-20T16:45:34.500Z,18.67
2019-02-20T16:48:02.880Z,14.77
2019-02-20T16:50:31.271Z,18.50
2019-02-20T16:52:59.720Z,17.03
2019-02-20T16:55:28.108Z,15.37
2019-02-20T16:57:57.205Z,18.57
2019-02-20T17:00:25.772Z,23.77
2019-02-20T17:02:54.538Z,19.63
2019-02-20T17:05:22.988Z,28.07
2019-02-20T17:07:51.369Z,20.57
2019-02-20T17:10:19.813Z,13.70
2019-02-20T17:12:48.204Z,17.47
2019-02-20T17:15:17.515Z,13.40
2019-02-20T17:17:46.464Z,15.00
2019-02-20T17:20:17.984Z,17.00
2019-02-20T17:22:46.466Z,17.43
2019-02-20T17:25:15.328Z,16.03
2019-02-20T17:27:43.700Z,16.10
2019-02-20T17:30:17.094Z,14.83
2019-02-20T17:32:46.011Z,15.50
2019-02-20T17:35:17.029Z,20.00
2019-02-20T17:37:45.698Z,19.07
2019-02-20T17:40:14.920Z,17.77
2019-02-20T17:42:43.299Z,22.17
2019-02-20T17:45:14.519Z,22.17
2019-02-20T17:47:43.440Z,17.20
2019-02-20T17:50:17.019Z,16.63
2019-02-20T17:52:45.688Z,17.43
2019-02-20T17:55:14.244Z,21.27
2019-02-20T17:57:42.615Z,16.37
2019-02-20T18:00:13.357Z,17.90
2019-02-20T18:02:41.738Z,19.53
2019-02-20T18:05:10.195Z,18.63
2019-02-20T18:07:38.584Z,18.23
2019-02-20T18:10:08.708Z,14.60
2019-02-20T18:12:37.282Z,14.90
2019-02-20T18:15:10.751Z,15.10
2019-02-20T18:17:39.452Z,16.80
2019-02-20T18:20:09.367Z,16.03
2019-02-20T18:22:37.749Z,15.67
2019-02-20T18:25:10.837Z,13.27
2019-02-20T18:27:39.251Z,15.30
2019-02-20T18:30:12.727Z,16.77
2019-02-20T18:32:41.115Z,15.50
2019-02-20T18:35:11.242Z,15.13
2019-02-20T18:37:39.626Z,16.97
2019-02-20T18:40:10.909Z,15.50
2019-02-20T18:42:39.307Z,17.70
2019-02-20T18:45:10.724Z,15.83
2019-02-20T18:47:39.100Z,20.73
2019-02-20T18:50:10.236Z,19.23
2019-02-20T18:52:38.623Z,17.37
2019-02-20T18:55:09.589Z,19.40
2019-02-20T18:57:38.177Z,16.67
2019-02-20T19:00:09.956Z,18.07
2019-02-20T19:02:38.343Z,20.27
2019-02-20T19:05:08.675Z,16.13
2019-02-20T19:07:37.051Z,16.30
2019-02-20T19:10:25.315Z,19.50
2019-02-20T19:13:11.532Z,18.57
2019-02-20T19:15:42.978Z,21.50
2019-02-20T19:18:28.731Z,24.47
2019-02-20T19:21:02.887Z,19.50
2019-02-20T19:23:49.247Z,19.30
2019-02-20T19:26:29.660Z,19.83
2019-02-20T19:29:17.804Z,20.33
2019-02-20T19:32:08.731Z,20.13
2019-02-20T19:34:43.055Z,22.63
2019-02-20T19:37:19.969Z,24.67
2019-02-20T19:40:00.583Z,17.83
2019-02-20T19:42:37.643Z,23.53
2019-02-20T19:45:23.961Z,18.20
2019-02-20T19:48:04.712Z,19.37
2019-02-20T19:50:39.166Z,24.30
2019-02-20T19:53:27.172Z,22.60
2019-02-20T19:56:04.461Z,21.33
2019-02-20T19:58:54.614Z,21.90
2019-02-20T20:01:39.788Z,19.00
2019-02-20T20:04:13.785Z,20.13
2019-02-20T20:06:54.346Z,18.80
2019-02-20T20:09:31.644Z,22.47
2019-02-20T20:12:09.033Z,22.30
2019-02-20T20:14:43.421Z,22.53
2019-02-20T20:17:43.779Z,19.53
2019-02-20T20:20:23.761Z,19.67
2019-02-20T20:23:00.950Z,19.23
2019-02-20T20:25:38.087Z,18.60
2019-02-20T20:28:32.204Z,21.27
2019-02-20T20:31:24.540Z,21.87
2019-02-20T20:34:32.664Z,24.10
2019-02-20T20:37:14.624Z,23.67
2019-02-20T20:39:46.215Z,20.70
2019-02-20T20:42:51.765Z,24.30
2019-02-20T20:45:39.306Z,20.87
2019-02-20T20:48:19.547Z,22.17
2019-02-20T20:51:02.724Z,22.73
2019-02-20T20:54:07.319Z,20.77
2019-02-20T20:56:57.394Z,20.67
2019-02-20T20:59:21.084Z,24.20
2019-02-20T21:01:58.296Z,22.77
2019-02-20T21:05:03.472Z,20.23
2019-02-20T21:07:51.576Z,27.50
2019-02-20T21:10:44.655Z,19.20
2019-02-20T21:13:35.204Z,24.63
2019-02-20T21:16:15.112Z,23.07
2019-02-20T21:19:06.204Z,27.87
2019-02-20T21:21:49.504Z,26.70
2019-02-20T21:24:43.252Z,24.83
2019-02-20T21:27:35.627Z,22.30
2019-02-20T21:30:15.879Z,21.90
2019-02-20T21:33:02.325Z,20.27
2019-02-20T21:35:39.723Z,27.43
2019-02-20T21:38:26.009Z,26.87
2019-02-20T21:41:00.348Z,22.87
2019-02-20T21:43:52.820Z,28.63
2019-02-20T21:46:45.621Z,28.00
2019-02-20T21:49:19.691Z,27.93
2019-02-20T21:52:12.209Z,23.03
2019-02-20T21:54:55.659Z,23.93
2019-02-20T21:57:36.048Z,26.70
2019-02-20T22:00:27.760Z,26.07
2019-02-20T22:02:58.549Z,30.47
2019-02-20T22:05:38.796Z,26.87
2019-02-20T22:08:45.096Z,21.57
2019-02-20T22:11:24.306Z,27.83
2019-02-20T22:14:16.623Z,26.13
2019-02-20T22:16:56.607Z,25.37
2019-02-20T22:19:40.128Z,23.23
2019-02-20T22:22:29.648Z,28.03
2019-02-20T22:25:13.003Z,23.63
2019-02-20T22:27:59.319Z,26.80
2019-02-20T22:30:39.453Z,29.30
2019-02-20T22:33:16.881Z,25.57
2019-02-20T22:36:13.419Z,32.50
2019-02-20T22:39:12.399Z,27.37
2019-02-20T22:42:06.200Z,30.90
2019-02-20T22:44:52.531Z,28.73
2019-02-20T22:47:36.084Z,32.17
2019-02-20T22:50:28.695Z,31.47
2019-02-20T22:53:15.300Z,28.43
2019-02-20T22:56:01.701Z,32.37
2019-02-20T22:58:39.088Z,29.17
2019-02-20T23:01:16.076Z,30.23
2019-02-20T23:04:06.920Z,35.57
2019-02-20T23:06:53.268Z,30.53
2019-02-20T23:09:39.778Z,28.73
2019-02-20T23:12:26.389Z,34.60
2019-02-20T23:14:59.568Z,31.20
2019-02-20T23:17:28.487Z,30.13
2019-02-20T23:19:57.350Z,29.40
2019-02-20T23:22:25.729Z,31.43
2019-02-20T23:24:54.108Z,31.70
2019-02-20T23:27:22.500Z,27.33
2019-02-20T23:29:50.871Z,28.63
2019-02-20T23:32:19.294Z,27.63
2019-02-20T23:34:47.711Z,34.53
2019-02-20T23:37:16.112Z,29.93
2019-02-20T23:39:44.499Z,27.97
2019-02-20T23:42:12.872Z,34.03
2019-02-20T23:44:41.248Z,33.47
2019-02-20T23:47:09.640Z,32.43
2019-02-20T23:49:38.027Z,28.83
2019-02-20T23:52:06.408Z,27.77
2019-02-20T23:54:34.795Z,30.00
2019-02-20T23:57:03.175Z,24.03
2019-02-20T23:59:31.563Z,30.43
